createdAt,value
2023-03-17T00:01:24.011Z,56.60
2023-03-17T00:03:51.542Z,55.00
2023-03-17T00:06:29.224Z,48.13
2023-03-17T00:08:57.342Z,43.78
2023-03-17T00:11:26.446Z,46.05
2023-03-17T00:13:53.472Z,44.65
2023-03-17T00:16:25.517Z,50.58
2023-03-17T00:18:54.626Z,44.87
2023-03-17T00:21:32.270Z,44.15
2023-03-17T00:24:00.300Z,41.13
2023-03-17T00:26:29.826Z,34.55
2023-03-17T00:28:56.950Z,35.50
2023-03-17T00:31:29.712Z,38.42
2023-03-17T00:33:58.345Z,36.40
2023-03-17T00:36:30.808Z,34.08
2023-03-17T00:38:58.860Z,34.80
2023-03-17T00:41:27.296Z,37.47
2023-03-17T00:43:54.348Z,36.60
2023-03-17T00:46:35.778Z,42.15
2023-03-17T00:49:24.997Z,35.97
2023-03-17T00:51:52.750Z,41.47
2023-03-17T00:54:21.000Z,40.85
2023-03-17T00:56:50.801Z,40.15
2023-03-17T00:59:32.397Z,35.22
2023-03-17T01:01:59.641Z,40.30
2023-03-17T01:04:26.546Z,43.63
2023-03-17T01:06:54.292Z,41.85
2023-03-17T01:09:26.944Z,39.90
2023-03-17T01:11:55.501Z,42.13
2023-03-17T01:14:24.674Z,34.75
2023-03-17T01:16:55.434Z,36.00
2023-03-17T01:19:22.959Z,34.78
2023-03-17T01:21:50.198Z,31.77
2023-03-17T01:24:17.039Z,30.98
2023-03-17T01:26:44.585Z,32.92
2023-03-17T01:29:12.036Z,32.80
2023-03-17T01:31:39.211Z,32.92
2023-03-17T01:34:06.327Z,29.10
2023-03-17T01:36:34.212Z,30.88
2023-03-17T01:39:01.424Z,30.83
2023-03-17T01:41:28.283Z,34.33
2023-03-17T01:43:55.144Z,35.15
2023-03-17T01:46:27.843Z,32.60
2023-03-17T01:49:16.322Z,33.92
2023-03-17T01:52:14.287Z,30.55
2023-03-17T01:54:46.486Z,30.92
2023-03-17T01:57:31.409Z,35.10
2023-03-17T02:00:09.220Z,37.95
2023-03-17T02:02:39.934Z,38.78
2023-03-17T02:05:12.040Z,35.78
2023-03-17T02:07:40.613Z,31.30
2023-03-17T02:10:09.034Z,39.72
2023-03-17T02:12:37.096Z,39.58
2023-03-17T02:15:05.337Z,39.65
2023-03-17T02:17:32.459Z,48.22
2023-03-17T02:20:16.000Z,42.10
2023-03-17T02:22:52.591Z,51.05
2023-03-17T02:25:23.317Z,51.42
2023-03-17T02:27:57.693Z,50.15
2023-03-17T02:30:28.716Z,52.03
2023-03-17T02:32:55.828Z,51.25
2023-03-17T02:35:23.398Z,53.22
2023-03-17T02:37:50.407Z,49.33
2023-03-17T02:40:18.658Z,48.28
2023-03-17T02:42:45.657Z,43.30
2023-03-17T02:45:14.320Z,49.53
2023-03-17T02:47:42.619Z,48.88
2023-03-17T02:50:25.785Z,49.80
2023-03-17T02:55:20.346Z,46.05
2023-03-17T02:57:47.381Z,42.72
2023-03-17T03:00:15.455Z,42.35
2023-03-17T03:02:43.022Z,49.45
2023-03-17T03:05:10.706Z,43.22
2023-03-17T03:07:37.590Z,43.95
2023-03-17T03:10:05.718Z,44.65
2023-03-17T03:12:32.633Z,40.95
2023-03-17T03:14:59.507Z,40.65
2023-03-17T03:17:26.425Z,38.90
2023-03-17T03:19:53.596Z,37.65
2023-03-17T03:22:20.445Z,37.20
2023-03-17T03:24:47.300Z,33.78
2023-03-17T03:27:14.187Z,34.47
2023-03-17T03:29:41.681Z,38.60
2023-03-17T03:32:08.648Z,34.88
2023-03-17T03:34:35.564Z,36.75
2023-03-17T03:37:02.379Z,32.63
2023-03-17T03:39:29.216Z,33.20
2023-03-17T03:41:58.206Z,31.58
2023-03-17T03:44:25.570Z,33.42
2023-03-17T03:46:52.554Z,35.13
2023-03-17T03:49:19.498Z,32.38
2023-03-17T03:51:46.334Z,34.35
2023-03-17T03:54:13.376Z,35.83
2023-03-17T03:56:40.342Z,31.13
2023-03-17T03:59:07.553Z,30.17
2023-03-17T04:01:34.451Z,34.40
2023-03-17T04:04:01.888Z,30.40
2023-03-17T04:06:28.724Z,34.38
2023-03-17T04:08:57.879Z,33.30
2023-03-17T04:11:25.797Z,32.25
2023-03-17T04:13:52.639Z,34.42
2023-03-17T04:16:19.485Z,35.40
2023-03-17T04:18:46.371Z,36.10
2023-03-17T04:21:13.812Z,38.03
2023-03-17T04:23:40.627Z,30.70
2023-03-17T04:26:07.618Z,33.88
2023-03-17T04:28:34.594Z,34.80
2023-03-17T04:31:01.509Z,41.50
2023-03-17T04:33:28.762Z,34.83
2023-03-17T04:35:55.976Z,33.67
2023-03-17T04:38:23.125Z,33.25
2023-03-17T04:40:51.788Z,36.40
2023-03-17T04:43:18.661Z,37.03
2023-03-17T04:45:45.700Z,32.83
2023-03-17T04:48:12.547Z,34.33
2023-03-17T04:50:39.734Z,31.35
2023-03-17T04:53:06.818Z,31.67
2023-03-17T04:55:33.685Z,36.58
2023-03-17T04:58:01.044Z,37.00
2023-03-17T05:00:28.347Z,34.00
2023-03-17T05:02:55.470Z,36.08
2023-03-17T05:05:22.679Z,36.10
2023-03-17T05:07:49.505Z,35.45
2023-03-17T05:10:16.548Z,36.55
2023-03-17T05:12:43.406Z,37.00
2023-03-17T05:15:11.115Z,35.03
2023-03-17T05:17:37.944Z,34.72
2023-03-17T05:20:05.737Z,38.15
2023-03-17T05:22:32.567Z,36.40
2023-03-17T05:24:59.776Z,37.15
2023-03-17T05:27:26.968Z,39.75
2023-03-17T05:29:53.787Z,39.63
2023-03-17T05:32:20.966Z,36.72
2023-03-17T05:34:48.268Z,36.70
2023-03-17T05:37:15.622Z,37.92
2023-03-17T05:39:42.524Z,34.72
2023-03-17T05:42:09.714Z,37.97
2023-03-17T05:44:36.558Z,37.13
2023-03-17T05:47:03.408Z,37.50
2023-03-17T05:49:30.383Z,39.13
2023-03-17T05:51:57.389Z,38.25
2023-03-17T05:54:24.486Z,35.90
2023-03-17T05:56:51.519Z,38.20
2023-03-17T05:59:18.522Z,34.58
2023-03-17T06:01:45.551Z,40.08
2023-03-17T06:04:12.694Z,41.88
2023-03-17T06:06:39.964Z,39.08
2023-03-17T06:09:06.966Z,37.70
2023-03-17T06:11:33.847Z,40.45
2023-03-17T06:14:01.757Z,36.40
2023-03-17T06:16:30.734Z,41.95
2023-03-17T06:18:57.602Z,41.78
2023-03-17T06:21:24.775Z,36.60
2023-03-17T06:23:51.648Z,39.28
2023-03-17T06:26:18.554Z,38.63
2023-03-17T06:28:45.573Z,42.72
2023-03-17T06:31:12.456Z,43.47
2023-03-17T06:33:39.629Z,41.55
2023-03-17T06:36:08.141Z,46.75
2023-03-17T06:38:35.140Z,48.15
2023-03-17T06:41:01.958Z,41.13
2023-03-17T06:43:28.903Z,42.08
2023-03-17T06:45:55.786Z,48.63
2023-03-17T06:48:23.523Z,50.50
2023-03-17T06:50:50.475Z,47.00
2023-03-17T06:53:17.468Z,48.05
2023-03-17T06:55:45.029Z,42.20
2023-03-17T06:58:13.180Z,52.10
2023-03-17T07:00:40.134Z,47.30
2023-03-17T07:03:07.144Z,42.83
2023-03-17T07:05:34.142Z,44.63
2023-03-17T07:08:01.067Z,47.53
2023-03-17T07:10:28.130Z,48.80
2023-03-17T07:12:55.098Z,49.20
2023-03-17T07:15:22.092Z,51.38
2023-03-17T07:17:48.946Z,49.38
2023-03-17T07:20:16.688Z,49.88
2023-03-17T07:22:43.623Z,52.05
2023-03-17T07:38:59.235Z,51.22
2023-03-17T07:41:26.314Z,46.30
2023-03-17T07:43:53.244Z,44.38
2023-03-17T07:46:20.829Z,45.10
2023-03-17T07:48:48.288Z,43.97
2023-03-17T07:51:19.057Z,44.47
2023-03-17T07:53:46.456Z,43.55
2023-03-17T07:56:14.196Z,44.40
2023-03-17T07:58:41.769Z,44.53
2023-03-17T08:01:09.754Z,40.67
2023-03-17T08:03:38.151Z,40.20
2023-03-17T08:06:08.550Z,36.25
2023-03-17T08:08:35.956Z,37.88
2023-03-17T08:11:05.533Z,37.85
2023-03-17T08:13:32.757Z,37.00
2023-03-17T08:16:00.212Z,36.88
2023-03-17T08:18:27.078Z,35.38
2023-03-17T08:20:53.951Z,35.42
2023-03-17T08:23:21.496Z,33.13
2023-03-17T08:25:48.790Z,37.00
2023-03-17T08:28:16.343Z,33.72
2023-03-17T08:30:44.839Z,32.40
2023-03-17T08:33:11.886Z,28.27
2023-03-17T08:35:41.738Z,31.70
2023-03-17T08:38:09.153Z,30.95
2023-03-17T08:40:38.704Z,27.40
2023-03-17T08:43:07.753Z,28.35
2023-03-17T08:45:35.341Z,25.50
2023-03-17T08:48:03.194Z,27.52
2023-03-17T08:50:31.043Z,27.83
2023-03-17T08:52:58.219Z,25.33
2023-03-17T08:55:25.189Z,25.70
2023-03-17T08:57:52.489Z,27.48
2023-03-17T09:00:20.871Z,24.10
2023-03-17T09:02:48.578Z,25.92
2023-03-17T09:05:17.532Z,23.15
2023-03-17T09:07:44.922Z,26.13
2023-03-17T09:10:13.649Z,19.63
2023-03-17T09:12:40.563Z,27.30
2023-03-17T09:15:08.781Z,22.60
2023-03-17T09:17:36.015Z,21.73
2023-03-17T09:20:03.494Z,23.35
2023-03-17T09:22:31.047Z,22.00
2023-03-17T09:24:58.195Z,23.70
2023-03-17T09:27:25.046Z,19.85
2023-03-17T09:29:51.904Z,22.05
2023-03-17T09:32:18.799Z,21.00
2023-03-17T09:34:46.234Z,22.08
2023-03-17T09:37:13.674Z,21.98
2023-03-17T09:39:41.382Z,23.05
2023-03-17T09:42:41.462Z,22.05
2023-03-17T09:45:23.399Z,20.90
2023-03-17T09:48:22.574Z,21.13
2023-03-17T09:51:11.838Z,21.98
2023-03-17T09:53:59.960Z,22.48
2023-03-17T09:56:33.708Z,22.85
2023-03-17T09:59:08.682Z,21.85
2023-03-17T10:01:38.281Z,20.85
2023-03-17T10:04:05.396Z,22.73
2023-03-17T10:06:38.871Z,20.20
2023-03-17T10:09:40.108Z,20.88
2023-03-17T10:12:44.914Z,19.95
2023-03-17T10:15:36.424Z,20.60
2023-03-17T10:18:14.071Z,19.50
2023-03-17T10:21:07.139Z,18.63
2023-03-17T10:23:37.762Z,20.05
2023-03-17T10:26:34.668Z,21.92
2023-03-17T10:29:10.741Z,33.15
2023-03-17T10:31:39.240Z,21.80
2023-03-17T10:34:29.152Z,17.33
2023-03-17T10:37:13.902Z,19.92
2023-03-17T10:39:54.591Z,22.23
2023-03-17T10:42:32.228Z,18.70
2023-03-17T10:45:25.988Z,19.70
2023-03-17T10:47:57.589Z,18.20
2023-03-17T10:50:32.456Z,19.38
2023-03-17T10:53:03.862Z,18.35
2023-03-17T10:55:42.641Z,16.50
2023-03-17T10:58:29.450Z,19.70
2023-03-17T11:01:08.391Z,18.38
2023-03-17T11:03:41.859Z,23.73
2023-03-17T11:06:14.581Z,19.00
2023-03-17T11:08:54.809Z,17.65
2023-03-17T11:11:34.584Z,21.80
2023-03-17T11:14:19.518Z,18.88
2023-03-17T11:16:58.213Z,17.17
2023-03-17T11:19:52.292Z,18.42
2023-03-17T11:22:40.995Z,20.63
2023-03-17T11:25:19.490Z,23.02
2023-03-17T11:28:06.597Z,20.27
2023-03-17T11:31:37.171Z,18.13
2023-03-17T11:34:25.478Z,18.80
2023-03-17T11:37:10.084Z,18.85
2023-03-17T11:40:20.580Z,22.13
2023-03-17T11:43:11.046Z,25.67
2023-03-17T11:46:06.114Z,21.73
2023-03-17T11:49:20.436Z,19.35
2023-03-17T11:52:19.695Z,22.65
2023-03-17T11:55:20.116Z,25.17
2023-03-17T11:57:58.659Z,24.45
2023-03-17T12:00:39.317Z,26.38
2023-03-17T12:03:30.131Z,22.60
2023-03-17T12:06:05.505Z,21.50
2023-03-17T12:08:53.652Z,23.20
2023-03-17T12:11:28.856Z,32.45
2023-03-17T12:14:05.621Z,25.23
2023-03-17T12:16:46.291Z,21.05
2023-03-17T12:19:26.202Z,23.17
2023-03-17T12:22:03.573Z,23.40
2023-03-17T12:24:41.018Z,23.35
2023-03-17T12:27:43.196Z,26.60
2023-03-17T12:30:30.903Z,22.30
2023-03-17T12:33:21.286Z,19.80
2023-03-17T12:35:48.912Z,23.02
2023-03-17T12:38:45.348Z,21.15
2023-03-17T12:41:52.168Z,24.65
2023-03-17T12:44:58.135Z,21.83
2023-03-17T12:47:50.336Z,20.38
2023-03-17T12:51:06.689Z,29.92
2023-03-17T12:53:42.260Z,25.58
2023-03-17T12:56:25.205Z,23.95
2023-03-17T12:58:58.818Z,19.25
2023-03-17T13:01:45.890Z,22.98
2023-03-17T13:04:35.475Z,18.98
2023-03-17T13:07:19.313Z,22.08
2023-03-17T13:09:54.969Z,21.77
2023-03-17T13:12:40.059Z,21.38
2023-03-17T13:15:25.516Z,22.65
2023-03-17T13:18:20.420Z,21.08
2023-03-17T13:20:56.547Z,21.60
2023-03-17T13:23:58.407Z,21.65
2023-03-17T13:27:00.857Z,17.02
2023-03-17T13:29:33.572Z,18.50
2023-03-17T13:32:15.577Z,16.98
2023-03-17T13:34:55.996Z,19.23
2023-03-17T13:37:28.642Z,18.33
2023-03-17T13:40:48.014Z,16.05
2023-03-17T13:43:37.949Z,21.63
2023-03-17T13:46:33.952Z,20.33
2023-03-17T13:49:19.302Z,18.90
2023-03-17T13:52:21.669Z,19.38
2023-03-17T13:54:59.817Z,20.23
2023-03-17T13:57:38.954Z,16.95
2023-03-17T14:00:27.875Z,13.40
2023-03-17T14:03:12.243Z,16.75
2023-03-17T14:05:41.860Z,11.48
2023-03-17T14:08:21.670Z,12.75
2023-03-17T14:10:57.822Z,14.13
2023-03-17T14:13:49.385Z,13.32
2023-03-17T14:16:32.063Z,14.43
2023-03-17T14:19:17.591Z,11.65
2023-03-17T14:21:44.625Z,14.13
2023-03-17T14:24:23.335Z,12.95
2023-03-17T14:26:52.658Z,13.95
2023-03-17T14:29:28.515Z,15.02
2023-03-17T14:32:13.441Z,15.50
2023-03-17T14:34:58.656Z,16.38
2023-03-17T14:37:27.281Z,16.50
2023-03-17T14:39:57.645Z,16.70
2023-03-17T14:42:31.154Z,16.75
2023-03-17T14:45:08.441Z,15.63
2023-03-17T14:47:42.720Z,15.15
2023-03-17T14:50:32.240Z,14.68
2023-03-17T14:53:00.849Z,15.07
2023-03-17T14:55:42.155Z,15.63
2023-03-17T14:58:38.236Z,17.75
2023-03-17T15:01:23.146Z,15.48
2023-03-17T15:04:12.085Z,13.38
2023-03-17T15:07:02.185Z,15.55
2023-03-17T15:09:37.795Z,14.27
2023-03-17T15:12:21.491Z,15.50
2023-03-17T15:14:54.240Z,16.10
2023-03-17T15:17:41.552Z,18.63
2023-03-17T15:20:17.792Z,13.25
2023-03-17T15:22:55.181Z,15.43
2023-03-17T15:25:38.513Z,12.57
2023-03-17T15:30:51.468Z,15.45
2023-03-17T15:33:32.727Z,15.23
2023-03-17T15:36:02.841Z,13.57
2023-03-17T15:38:30.845Z,16.70
2023-03-17T15:40:58.121Z,15.80
2023-03-17T15:43:25.357Z,17.25
2023-03-17T15:46:02.495Z,16.25
2023-03-17T15:48:35.139Z,16.48
2023-03-17T15:51:04.708Z,14.88
2023-03-17T15:53:32.209Z,17.35
2023-03-17T15:55:59.237Z,15.95
2023-03-17T15:58:26.153Z,18.33
2023-03-17T16:00:57.243Z,17.38
2023-03-17T16:03:33.820Z,16.58
2023-03-17T16:06:03.287Z,17.75
2023-03-17T16:08:30.516Z,19.10
2023-03-17T16:10:57.508Z,16.83
2023-03-17T16:13:24.550Z,16.95
2023-03-17T16:15:58.991Z,17.85
2023-03-17T16:18:37.705Z,18.85
2023-03-17T16:21:05.628Z,17.70
2023-03-17T16:23:37.337Z,15.88
2023-03-17T16:26:15.033Z,15.38
2023-03-17T16:28:46.135Z,18.13
2023-03-17T16:31:22.195Z,15.77
2023-03-17T16:33:50.796Z,20.88
2023-03-17T16:36:21.479Z,16.38
2023-03-17T16:38:49.612Z,17.77
2023-03-17T16:41:27.464Z,20.30
2023-03-17T16:44:02.385Z,18.05
2023-03-17T16:46:35.373Z,20.23
2023-03-17T16:49:04.082Z,17.50
2023-03-17T16:51:31.182Z,21.20
2023-03-17T16:53:58.066Z,19.95
2023-03-17T16:56:27.280Z,23.23
2023-03-17T16:58:54.280Z,24.58
2023-03-17T17:01:28.414Z,23.88
2023-03-17T17:03:56.491Z,27.77
2023-03-17T17:06:24.310Z,25.33
2023-03-17T17:08:52.134Z,28.85
2023-03-17T17:11:20.515Z,28.02
2023-03-17T17:13:49.293Z,27.33
2023-03-17T17:16:25.406Z,24.27
2023-03-17T17:18:52.313Z,23.67
2023-03-17T17:21:19.826Z,24.02
2023-03-17T17:23:47.926Z,24.13
2023-03-17T17:26:21.690Z,22.90
2023-03-17T17:28:50.362Z,22.75
2023-03-17T17:31:25.754Z,22.77
2023-03-17T17:33:53.157Z,28.10
2023-03-17T17:36:20.296Z,22.95
2023-03-17T17:38:47.459Z,24.83
2023-03-17T17:41:16.873Z,21.25
2023-03-17T17:43:43.893Z,24.20
2023-03-17T17:46:21.303Z,22.27
2023-03-17T17:48:48.321Z,22.38
2023-03-17T17:51:15.807Z,23.80
2023-03-17T17:53:42.710Z,25.45
2023-03-17T17:56:17.894Z,23.15
2023-03-17T17:58:45.657Z,23.73
2023-03-17T18:01:14.219Z,24.38
2023-03-17T18:03:42.980Z,24.35
2023-03-17T18:06:10.689Z,26.08
2023-03-17T18:08:37.848Z,29.40
2023-03-17T18:11:05.597Z,27.92
2023-03-17T18:13:36.397Z,25.90
2023-03-17T18:16:04.124Z,28.58
2023-03-17T18:18:32.589Z,27.38
2023-03-17T18:20:59.870Z,29.33
2023-03-17T18:23:27.340Z,22.05
2023-03-17T18:26:00.932Z,23.40
2023-03-17T18:28:28.223Z,28.40
2023-03-17T18:30:59.596Z,25.10
2023-03-17T18:33:30.357Z,23.77
2023-03-17T18:35:57.964Z,24.95
2023-03-17T18:38:25.553Z,25.67
2023-03-17T18:40:56.042Z,28.67
2023-03-17T18:43:22.992Z,26.67
2023-03-17T18:45:49.922Z,26.35
2023-03-17T18:48:16.906Z,25.77
2023-03-17T18:50:43.823Z,24.92
2023-03-17T18:53:11.154Z,27.13
2023-03-17T18:55:38.130Z,28.65
2023-03-17T18:58:05.433Z,26.52
2023-03-17T19:00:33.175Z,26.35
2023-03-17T19:03:00.522Z,25.50
2023-03-17T19:05:27.782Z,25.17
2023-03-17T19:07:54.956Z,25.73
2023-03-17T19:10:21.947Z,28.05
2023-03-17T19:12:50.572Z,26.52
2023-03-17T19:15:17.627Z,34.45
2023-03-17T19:17:44.504Z,30.63
2023-03-17T19:20:13.127Z,38.90
2023-03-17T19:22:40.379Z,35.92
2023-03-17T19:25:08.771Z,39.58
2023-03-17T19:27:36.032Z,41.88
2023-03-17T19:30:02.907Z,37.88
2023-03-17T19:32:29.783Z,32.20
2023-03-17T19:34:56.675Z,33.13
2023-03-17T19:37:23.624Z,38.53
2023-03-17T19:39:50.625Z,49.50
2023-03-17T19:42:17.516Z,45.95
2023-03-17T19:44:44.793Z,41.50
2023-03-17T19:47:11.966Z,35.78
2023-03-17T19:49:38.832Z,38.75
2023-03-17T19:52:07.684Z,35.05
2023-03-17T19:54:37.725Z,33.10
2023-03-17T19:57:05.170Z,30.83
2023-03-17T19:59:32.074Z,32.00
2023-03-17T20:01:59.093Z,33.42
2023-03-17T20:04:25.979Z,30.83
2023-03-17T20:06:55.550Z,35.53
2023-03-17T20:09:26.188Z,32.95
2023-03-17T20:11:53.999Z,32.40
2023-03-17T20:14:21.480Z,28.38
2023-03-17T20:16:48.980Z,33.92
2023-03-17T20:19:17.935Z,29.67
2023-03-17T20:21:44.999Z,33.13
2023-03-17T20:24:14.550Z,32.33
2023-03-17T20:26:43.336Z,30.33
2023-03-17T20:29:14.434Z,33.85
2023-03-17T20:31:42.693Z,30.45
2023-03-17T20:34:11.735Z,30.65
2023-03-17T20:36:42.248Z,33.42
2023-03-17T20:39:14.765Z,34.25
2023-03-17T20:41:42.291Z,33.40
2023-03-17T20:44:09.312Z,29.50
2023-03-17T20:46:36.269Z,30.25
2023-03-17T20:49:04.069Z,29.10
2023-03-17T20:51:32.321Z,30.30
2023-03-17T20:54:00.716Z,32.78
2023-03-17T20:56:29.838Z,30.42
2023-03-17T20:58:58.493Z,33.78
2023-03-17T21:01:25.751Z,28.98
2023-03-17T21:03:53.535Z,29.83
2023-03-17T21:06:20.735Z,31.42
2023-03-17T21:08:47.695Z,32.33
2023-03-17T21:11:19.302Z,27.88
2023-03-17T21:13:47.079Z,31.08
2023-03-17T21:16:21.186Z,29.98
2023-03-17T21:18:48.609Z,26.10
2023-03-17T21:21:17.199Z,28.13
2023-03-17T21:23:44.748Z,28.95
2023-03-17T21:26:12.686Z,28.30
2023-03-17T21:28:41.588Z,28.05
2023-03-17T21:31:10.109Z,26.83
2023-03-17T21:33:37.381Z,31.50
2023-03-17T21:36:05.683Z,27.52
2023-03-17T21:38:32.729Z,28.77
2023-03-17T21:41:33.305Z,31.15
2023-03-17T21:44:02.414Z,26.33
2023-03-17T21:46:29.837Z,28.55
2023-03-17T21:48:57.152Z,28.17
2023-03-17T21:51:25.491Z,29.50
2023-03-17T21:53:53.027Z,30.10
2023-03-17T21:56:20.833Z,29.75
2023-03-17T21:58:48.977Z,29.70
2023-03-17T22:01:22.906Z,28.33
2023-03-17T22:03:52.139Z,32.05
2023-03-17T22:06:20.675Z,30.33
2023-03-17T22:08:48.749Z,28.95
2023-03-17T22:11:18.794Z,27.27
2023-03-17T22:13:46.724Z,31.63
2023-03-17T22:16:16.227Z,26.58
2023-03-17T22:18:43.496Z,27.00
2023-03-17T22:21:10.987Z,29.05
2023-03-17T22:23:42.338Z,29.70
2023-03-17T22:26:17.463Z,28.42
2023-03-17T22:28:46.263Z,27.75
2023-03-17T22:31:21.216Z,31.08
2023-03-17T22:33:52.317Z,32.45
2023-03-17T22:36:19.597Z,27.10
2023-03-17T22:38:47.007Z,31.33
2023-03-17T22:41:18.394Z,28.42
2023-03-17T22:43:46.829Z,28.55
2023-03-17T22:46:15.880Z,31.13
2023-03-17T22:48:43.397Z,29.70
2023-03-17T22:51:15.844Z,32.53
2023-03-17T22:53:43.832Z,27.23
2023-03-17T22:56:12.641Z,25.95
2023-03-17T22:58:40.467Z,28.42
2023-03-17T23:01:08.506Z,26.17
2023-03-17T23:03:36.092Z,28.80
2023-03-17T23:06:06.202Z,27.38
2023-03-17T23:08:36.638Z,28.05
2023-03-17T23:11:09.123Z,27.85
2023-03-17T23:13:36.771Z,27.85
2023-03-17T23:16:04.654Z,29.75
2023-03-17T23:18:32.643Z,28.35
2023-03-17T23:21:01.594Z,26.42
2023-03-17T23:23:29.248Z,26.88
2023-03-17T23:25:56.393Z,28.30
2023-03-17T23:28:24.116Z,27.05
2023-03-17T23:30:51.800Z,29.40
2023-03-17T23:33:21.515Z,27.17
2023-03-17T23:35:50.259Z,31.38
2023-03-17T23:38:21.692Z,27.60
2023-03-17T23:40:50.166Z,25.23
2023-03-17T23:43:17.371Z,26.70
2023-03-17T23:45:45.425Z,25.65
2023-03-17T23:48:12.547Z,29.58
2023-03-17T23:50:41.571Z,27.00
2023-03-17T23:53:09.604Z,33.10
2023-03-17T23:55:36.485Z,33.35
2023-03-17T23:58:03.707Z,26.90
